sensor_id;sensor_type;location;lat;lon;timestamp;P1;durP1;ratioP1;P2;durP2;ratioP2
75358;SDS011;64046;51.978;5.934;2022-10-16T00:01:55;6.93;;;2.65;;
75358;SDS011;64046;51.978;5.934;2022-10-16T00:04:24;7.88;;;3.80;;
75358;SDS011;64046;51.978;5.934;2022-10-16T00:06:53;6.30;;;2.75;;
75358;SDS011;64046;51.978;5.934;2022-10-16T00:09:22;6.00;;;2.20;;
75358;SDS011;64046;51.978;5.934;2022-10-16T00:11:54;4.75;;;2.38;;
75358;SDS011;64046;51.978;5.934;2022-10-16T00:14:23;5.47;;;2.30;;
75358;SDS011;64046;51.978;5.934;2022-10-16T00:16:52;6.10;;;2.50;;
75358;SDS011;64046;51.978;5.934;2022-10-16T00:19:21;7.15;;;3.35;;
75358;SDS011;64046;51.978;5.934;2022-10-16T00:21:50;4.28;;;2.35;;
75358;SDS011;64046;51.978;5.934;2022-10-16T00:24:19;4.75;;;2.20;;
75358;SDS011;64046;51.978;5.934;2022-10-16T00:26:49;7.93;;;3.30;;
75358;SDS011;64046;51.978;5.934;2022-10-16T00:29:22;7.30;;;3.30;;
75358;SDS011;64046;51.978;5.934;2022-10-16T00:31:51;5.43;;;2.70;;
75358;SDS011;64046;51.978;5.934;2022-10-16T00:34:20;6.05;;;2.67;;
75358;SDS011;64046;51.978;5.934;2022-10-16T00:36:49;7.75;;;3.05;;
75358;SDS011;64046;51.978;5.934;2022-10-16T00:39:18;4.80;;;2.47;;
75358;SDS011;64046;51.978;5.934;2022-10-16T00:41:48;5.05;;;2.33;;
75358;SDS011;64046;51.978;5.934;2022-10-16T00:47:22;4.38;;;2.13;;
75358;SDS011;64046;51.978;5.934;2022-10-16T00:49:56;7.10;;;2.28;;
75358;SDS011;64046;51.978;5.934;2022-10-16T00:52:28;9.13;;;2.90;;
75358;SDS011;64046;51.978;5.934;2022-10-16T00:54:58;6.53;;;2.38;;
75358;SDS011;64046;51.978;5.934;2022-10-16T00:57:28;10.50;;;2.50;;
75358;SDS011;64046;51.978;5.934;2022-10-16T00:59:57;3.20;;;2.00;;
75358;SDS011;64046;51.978;5.934;2022-10-16T01:02:29;5.50;;;2.33;;
75358;SDS011;64046;51.978;5.934;2022-10-16T01:04:58;3.90;;;2.38;;
75358;SDS011;64046;51.978;5.934;2022-10-16T01:07:30;6.50;;;2.45;;
75358;SDS011;64046;51.978;5.934;2022-10-16T01:10:09;6.00;;;2.70;;
75358;SDS011;64046;51.978;5.934;2022-10-16T01:12:50;6.30;;;2.45;;
75358;SDS011;64046;51.978;5.934;2022-10-16T01:15:24;4.70;;;2.78;;
75358;SDS011;64046;51.978;5.934;2022-10-16T01:18:00;10.40;;;2.85;;
75358;SDS011;64046;51.978;5.934;2022-10-16T01:20:37;4.15;;;2.38;;
75358;SDS011;64046;51.978;5.934;2022-10-16T01:23:15;9.32;;;3.00;;
75358;SDS011;64046;51.978;5.934;2022-10-16T01:26:04;11.68;;;5.63;;
75358;SDS011;64046;51.978;5.934;2022-10-16T01:28:45;9.98;;;4.55;;
75358;SDS011;64046;51.978;5.934;2022-10-16T01:31:19;5.47;;;2.90;;
75358;SDS011;64046;51.978;5.934;2022-10-16T01:33:55;3.90;;;2.85;;
75358;SDS011;64046;51.978;5.934;2022-10-16T01:36:28;8.75;;;4.20;;
75358;SDS011;64046;51.978;5.934;2022-10-16T01:39:04;5.55;;;3.03;;
75358;SDS011;64046;51.978;5.934;2022-10-16T01:41:36;5.25;;;2.83;;
75358;SDS011;64046;51.978;5.934;2022-10-16T01:44:13;5.25;;;2.92;;
75358;SDS011;64046;51.978;5.934;2022-10-16T01:46:48;8.20;;;3.00;;
75358;SDS011;64046;51.978;5.934;2022-10-16T01:49:20;7.97;;;2.83;;
75358;SDS011;64046;51.978;5.934;2022-10-16T01:51:52;6.70;;;2.33;;
75358;SDS011;64046;51.978;5.934;2022-10-16T01:54:25;5.00;;;2.42;;
75358;SDS011;64046;51.978;5.934;2022-10-16T01:56:59;3.33;;;2.13;;
75358;SDS011;64046;51.978;5.934;2022-10-16T01:59:35;2.63;;;2.05;;
75358;SDS011;64046;51.978;5.934;2022-10-16T02:02:12;6.93;;;2.38;;
75358;SDS011;64046;51.978;5.934;2022-10-16T02:04:44;8.88;;;3.47;;
75358;SDS011;64046;51.978;5.934;2022-10-16T02:07:17;5.75;;;2.53;;
75358;SDS011;64046;51.978;5.934;2022-10-16T02:09:46;4.60;;;2.50;;
75358;SDS011;64046;51.978;5.934;2022-10-16T02:12:16;7.50;;;3.55;;
75358;SDS011;64046;51.978;5.934;2022-10-16T02:14:52;5.35;;;2.72;;
75358;SDS011;64046;51.978;5.934;2022-10-16T02:17:21;4.28;;;3.08;;
75358;SDS011;64046;51.978;5.934;2022-10-16T02:19:53;4.05;;;2.60;;
75358;SDS011;64046;51.978;5.934;2022-10-16T02:22:25;3.80;;;2.10;;
75358;SDS011;64046;51.978;5.934;2022-10-16T02:24:58;6.72;;;2.70;;
75358;SDS011;64046;51.978;5.934;2022-10-16T02:27:31;3.10;;;2.10;;
75358;SDS011;64046;51.978;5.934;2022-10-16T02:30:07;6.93;;;3.15;;
75358;SDS011;64046;51.978;5.934;2022-10-16T02:32:42;5.65;;;2.60;;
75358;SDS011;64046;51.978;5.934;2022-10-16T02:35:14;10.48;;;5.40;;
75358;SDS011;64046;51.978;5.934;2022-10-16T02:37:45;4.20;;;2.60;;
75358;SDS011;64046;51.978;5.934;2022-10-16T02:40:15;7.50;;;3.42;;
75358;SDS011;64046;51.978;5.934;2022-10-16T02:42:49;7.35;;;3.22;;
75358;SDS011;64046;51.978;5.934;2022-10-16T02:45:24;7.43;;;3.55;;
75358;SDS011;64046;51.978;5.934;2022-10-16T02:47:54;3.25;;;2.28;;
75358;SDS011;64046;51.978;5.934;2022-10-16T02:50:24;4.10;;;2.00;;
75358;SDS011;64046;51.978;5.934;2022-10-16T02:52:53;3.15;;;2.30;;
75358;SDS011;64046;51.978;5.934;2022-10-16T02:55:22;3.78;;;2.58;;
75358;SDS011;64046;51.978;5.934;2022-10-16T02:57:51;4.88;;;2.45;;
75358;SDS011;64046;51.978;5.934;2022-10-16T03:00:20;4.38;;;3.15;;
75358;SDS011;64046;51.978;5.934;2022-10-16T03:02:52;4.13;;;2.50;;
75358;SDS011;64046;51.978;5.934;2022-10-16T03:05:21;3.42;;;2.03;;
75358;SDS011;64046;51.978;5.934;2022-10-16T03:07:50;4.30;;;2.00;;
75358;SDS011;64046;51.978;5.934;2022-10-16T03:10:20;3.42;;;2.38;;
75358;SDS011;64046;51.978;5.934;2022-10-16T03:12:49;7.15;;;2.10;;
75358;SDS011;64046;51.978;5.934;2022-10-16T03:15:18;5.25;;;2.28;;
75358;SDS011;64046;51.978;5.934;2022-10-16T03:17:47;6.47;;;2.05;;
75358;SDS011;64046;51.978;5.934;2022-10-16T03:20:19;5.82;;;2.30;;
75358;SDS011;64046;51.978;5.934;2022-10-16T03:22:48;7.47;;;2.50;;
75358;SDS011;64046;51.978;5.934;2022-10-16T03:25:17;4.88;;;2.13;;
75358;SDS011;64046;51.978;5.934;2022-10-16T03:27:46;2.88;;;1.90;;
75358;SDS011;64046;51.978;5.934;2022-10-16T03:30:15;3.15;;;1.98;;
75358;SDS011;64046;51.978;5.934;2022-10-16T03:32:44;4.90;;;1.90;;
75358;SDS011;64046;51.978;5.934;2022-10-16T03:35:14;2.67;;;1.60;;
75358;SDS011;64046;51.978;5.934;2022-10-16T03:37:45;2.55;;;1.70;;
75358;SDS011;64046;51.978;5.934;2022-10-16T03:40:15;3.03;;;1.77;;
75358;SDS011;64046;51.978;5.934;2022-10-16T03:42:44;1.88;;;1.50;;
75358;SDS011;64046;51.978;5.934;2022-10-16T03:45:14;3.08;;;1.65;;
75358;SDS011;64046;51.978;5.934;2022-10-16T03:47:43;3.00;;;2.03;;
75358;SDS011;64046;51.978;5.934;2022-10-16T03:50:13;6.10;;;1.80;;
75358;SDS011;64046;51.978;5.934;2022-10-16T03:52:42;3.05;;;1.70;;
75358;SDS011;64046;51.978;5.934;2022-10-16T03:55:14;3.95;;;1.90;;
75358;SDS011;64046;51.978;5.934;2022-10-16T03:57:43;2.72;;;1.70;;
75358;SDS011;64046;51.978;5.934;2022-10-16T04:00:12;3.25;;;1.60;;
75358;SDS011;64046;51.978;5.934;2022-10-16T04:02:42;3.55;;;1.55;;
75358;SDS011;64046;51.978;5.934;2022-10-16T04:05:11;4.47;;;1.52;;
75358;SDS011;64046;51.978;5.934;2022-10-16T04:07:40;3.78;;;1.60;;
75358;SDS011;64046;51.978;5.934;2022-10-16T04:10:10;3.67;;;1.42;;
75358;SDS011;64046;51.978;5.934;2022-10-16T04:12:41;3.28;;;1.40;;
75358;SDS011;64046;51.978;5.934;2022-10-16T04:15:11;4.28;;;2.50;;
75358;SDS011;64046;51.978;5.934;2022-10-16T04:17:40;3.35;;;1.67;;
75358;SDS011;64046;51.978;5.934;2022-10-16T04:20:09;4.47;;;1.90;;
75358;SDS011;64046;51.978;5.934;2022-10-16T04:22:38;2.47;;;1.90;;
75358;SDS011;64046;51.978;5.934;2022-10-16T04:25:07;2.88;;;1.73;;
75358;SDS011;64046;51.978;5.934;2022-10-16T04:27:37;3.60;;;2.08;;
75358;SDS011;64046;51.978;5.934;2022-10-16T04:30:09;3.25;;;1.85;;
75358;SDS011;64046;51.978;5.934;2022-10-16T04:32:39;3.28;;;1.80;;
75358;SDS011;64046;51.978;5.934;2022-10-16T04:35:08;5.13;;;1.77;;
75358;SDS011;64046;51.978;5.934;2022-10-16T04:37:37;3.35;;;1.83;;
75358;SDS011;64046;51.978;5.934;2022-10-16T04:40:07;4.47;;;2.00;;
75358;SDS011;64046;51.978;5.934;2022-10-16T04:42:36;4.18;;;1.90;;
75358;SDS011;64046;51.978;5.934;2022-10-16T04:45:06;4.32;;;1.80;;
75358;SDS011;64046;51.978;5.934;2022-10-16T04:47:38;3.55;;;1.80;;
75358;SDS011;64046;51.978;5.934;2022-10-16T04:50:07;3.78;;;1.60;;
75358;SDS011;64046;51.978;5.934;2022-10-16T04:52:37;3.20;;;1.88;;
75358;SDS011;64046;51.978;5.934;2022-10-16T04:55:06;1.60;;;1.27;;
75358;SDS011;64046;51.978;5.934;2022-10-16T04:57:36;2.65;;;1.92;;
75358;SDS011;64046;51.978;5.934;2022-10-16T05:00:05;3.72;;;1.45;;
75358;SDS011;64046;51.978;5.934;2022-10-16T05:02:37;2.05;;;1.55;;
75358;SDS011;64046;51.978;5.934;2022-10-16T05:05:07;1.88;;;1.33;;
75358;SDS011;64046;51.978;5.934;2022-10-16T05:07:36;4.35;;;1.70;;
75358;SDS011;64046;51.978;5.934;2022-10-16T05:10:05;4.15;;;1.63;;
75358;SDS011;64046;51.978;5.934;2022-10-16T05:12:34;3.90;;;1.70;;
75358;SDS011;64046;51.978;5.934;2022-10-16T05:15:04;2.72;;;1.38;;
75358;SDS011;64046;51.978;5.934;2022-10-16T05:17:34;2.90;;;1.80;;
75358;SDS011;64046;51.978;5.934;2022-10-16T05:20:06;4.78;;;1.65;;
75358;SDS011;64046;51.978;5.934;2022-10-16T05:22:36;2.90;;;1.50;;
75358;SDS011;64046;51.978;5.934;2022-10-16T05:25:05;4.28;;;1.60;;
75358;SDS011;64046;51.978;5.934;2022-10-16T05:27:35;3.85;;;1.80;;
75358;SDS011;64046;51.978;5.934;2022-10-16T05:30:04;3.15;;;1.52;;
75358;SDS011;64046;51.978;5.934;2022-10-16T05:32:35;5.63;;;1.85;;
75358;SDS011;64046;51.978;5.934;2022-10-16T05:35:07;2.55;;;1.50;;
75358;SDS011;64046;51.978;5.934;2022-10-16T05:37:36;2.53;;;1.65;;
75358;SDS011;64046;51.978;5.934;2022-10-16T05:40:06;4.90;;;1.70;;
75358;SDS011;64046;51.978;5.934;2022-10-16T05:42:36;5.40;;;2.00;;
75358;SDS011;64046;51.978;5.934;2022-10-16T05:45:06;2.45;;;1.75;;
75358;SDS011;64046;51.978;5.934;2022-10-16T05:47:37;3.75;;;1.77;;
75358;SDS011;64046;51.978;5.934;2022-10-16T05:50:09;2.75;;;1.88;;
75358;SDS011;64046;51.978;5.934;2022-10-16T05:52:39;4.00;;;1.70;;
75358;SDS011;64046;51.978;5.934;2022-10-16T05:55:08;3.10;;;1.73;;
75358;SDS011;64046;51.978;5.934;2022-10-16T05:57:37;3.92;;;1.70;;
75358;SDS011;64046;51.978;5.934;2022-10-16T06:00:07;3.45;;;1.67;;
75358;SDS011;64046;51.978;5.934;2022-10-16T06:02:40;5.75;;;2.00;;
75358;SDS011;64046;51.978;5.934;2022-10-16T06:05:12;3.00;;;1.50;;
75358;SDS011;64046;51.978;5.934;2022-10-16T06:07:41;4.35;;;1.77;;
75358;SDS011;64046;51.978;5.934;2022-10-16T06:10:10;2.40;;;1.45;;
75358;SDS011;64046;51.978;5.934;2022-10-16T06:12:40;4.60;;;1.70;;
75358;SDS011;64046;51.978;5.934;2022-10-16T06:15:09;2.10;;;1.60;;
75358;SDS011;64046;51.978;5.934;2022-10-16T06:17:38;4.05;;;1.50;;
75358;SDS011;64046;51.978;5.934;2022-10-16T06:20:07;3.40;;;1.70;;
75358;SDS011;64046;51.978;5.934;2022-10-16T06:22:40;2.45;;;1.60;;
75358;SDS011;64046;51.978;5.934;2022-10-16T06:25:09;2.25;;;1.63;;
75358;SDS011;64046;51.978;5.934;2022-10-16T06:27:39;3.40;;;1.70;;
75358;SDS011;64046;51.978;5.934;2022-10-16T06:30:08;3.08;;;1.65;;
75358;SDS011;64046;51.978;5.934;2022-10-16T06:32:38;2.70;;;1.70;;
75358;SDS011;64046;51.978;5.934;2022-10-16T06:35:07;7.57;;;2.33;;
75358;SDS011;64046;51.978;5.934;2022-10-16T06:37:36;6.72;;;2.20;;
75358;SDS011;64046;51.978;5.934;2022-10-16T06:40:08;4.35;;;1.90;;
75358;SDS011;64046;51.978;5.934;2022-10-16T06:42:40;7.28;;;2.10;;
75358;SDS011;64046;51.978;5.934;2022-10-16T06:45:09;4.90;;;1.85;;
75358;SDS011;64046;51.978;5.934;2022-10-16T06:47:39;2.88;;;1.88;;
75358;SDS011;64046;51.978;5.934;2022-10-16T06:50:08;3.00;;;1.85;;
75358;SDS011;64046;51.978;5.934;2022-10-16T06:52:40;3.28;;;2.00;;
75358;SDS011;64046;51.978;5.934;2022-10-16T06:55:09;3.08;;;1.77;;
75358;SDS011;64046;51.978;5.934;2022-10-16T06:57:38;2.85;;;1.75;;
75358;SDS011;64046;51.978;5.934;2022-10-16T07:00:07;2.75;;;1.50;;
75358;SDS011;64046;51.978;5.934;2022-10-16T07:02:37;4.32;;;2.20;;
75358;SDS011;64046;51.978;5.934;2022-10-16T07:05:06;2.83;;;1.60;;
75358;SDS011;64046;51.978;5.934;2022-10-16T07:07:35;2.67;;;1.60;;
75358;SDS011;64046;51.978;5.934;2022-10-16T07:10:08;3.00;;;1.70;;
75358;SDS011;64046;51.978;5.934;2022-10-16T07:12:37;5.03;;;1.52;;
75358;SDS011;64046;51.978;5.934;2022-10-16T07:15:07;4.82;;;1.88;;
75358;SDS011;64046;51.978;5.934;2022-10-16T07:17:38;5.75;;;1.60;;
75358;SDS011;64046;51.978;5.934;2022-10-16T07:20:07;3.03;;;1.90;;
75358;SDS011;64046;51.978;5.934;2022-10-16T07:22:37;4.10;;;1.73;;
75358;SDS011;64046;51.978;5.934;2022-10-16T07:25:09;5.57;;;1.90;;
75358;SDS011;64046;51.978;5.934;2022-10-16T07:27:39;5.20;;;1.88;;
75358;SDS011;64046;51.978;5.934;2022-10-16T07:30:08;2.47;;;1.63;;
75358;SDS011;64046;51.978;5.934;2022-10-16T07:32:38;3.38;;;1.70;;
75358;SDS011;64046;51.978;5.934;2022-10-16T07:35:07;6.13;;;1.80;;
75358;SDS011;64046;51.978;5.934;2022-10-16T07:37:36;2.33;;;1.52;;
75358;SDS011;64046;51.978;5.934;2022-10-16T07:40:06;4.90;;;2.03;;
75358;SDS011;64046;51.978;5.934;2022-10-16T07:42:39;3.42;;;1.65;;
75358;SDS011;64046;51.978;5.934;2022-10-16T07:45:08;6.20;;;2.17;;
75358;SDS011;64046;51.978;5.934;2022-10-16T07:47:37;4.15;;;1.90;;
75358;SDS011;64046;51.978;5.934;2022-10-16T07:50:07;4.00;;;1.70;;
75358;SDS011;64046;51.978;5.934;2022-10-16T07:52:36;9.63;;;1.80;;
75358;SDS011;64046;51.978;5.934;2022-10-16T07:55:06;5.28;;;2.08;;
75358;SDS011;64046;51.978;5.934;2022-10-16T07:57:38;3.72;;;1.90;;
75358;SDS011;64046;51.978;5.934;2022-10-16T08:00:08;5.00;;;2.30;;
75358;SDS011;64046;51.978;5.934;2022-10-16T08:02:39;4.35;;;1.73;;
75358;SDS011;64046;51.978;5.934;2022-10-16T08:05:09;4.75;;;1.95;;
75358;SDS011;64046;51.978;5.934;2022-10-16T08:07:38;6.60;;;1.98;;
75358;SDS011;64046;51.978;5.934;2022-10-16T08:10:09;4.75;;;2.10;;
75358;SDS011;64046;51.978;5.934;2022-10-16T08:12:46;6.53;;;2.35;;
75358;SDS011;64046;51.978;5.934;2022-10-16T08:15:15;3.55;;;1.67;;
75358;SDS011;64046;51.978;5.934;2022-10-16T08:17:53;4.38;;;1.77;;
75358;SDS011;64046;51.978;5.934;2022-10-16T08:20:23;5.93;;;1.90;;
75358;SDS011;64046;51.978;5.934;2022-10-16T08:22:52;3.17;;;1.52;;
75358;SDS011;64046;51.978;5.934;2022-10-16T08:25:22;8.05;;;2.25;;
75358;SDS011;64046;51.978;5.934;2022-10-16T08:27:55;3.20;;;1.75;;
75358;SDS011;64046;51.978;5.934;2022-10-16T08:30:24;4.53;;;2.00;;
75358;SDS011;64046;51.978;5.934;2022-10-16T08:32:54;5.95;;;2.50;;
75358;SDS011;64046;51.978;5.934;2022-10-16T08:35:24;9.65;;;2.42;;
75358;SDS011;64046;51.978;5.934;2022-10-16T08:37:53;4.05;;;1.80;;
75358;SDS011;64046;51.978;5.934;2022-10-16T08:40:23;8.88;;;2.42;;
75358;SDS011;64046;51.978;5.934;2022-10-16T08:45:58;3.92;;;1.98;;
75358;SDS011;64046;51.978;5.934;2022-10-16T08:48:43;6.13;;;2.58;;
75358;SDS011;64046;51.978;5.934;2022-10-16T08:51:18;10.38;;;2.25;;
75358;SDS011;64046;51.978;5.934;2022-10-16T08:53:52;3.75;;;1.85;;
75358;SDS011;64046;51.978;5.934;2022-10-16T08:56:23;4.50;;;1.80;;
75358;SDS011;64046;51.978;5.934;2022-10-16T08:58:57;5.20;;;1.90;;
75358;SDS011;64046;51.978;5.934;2022-10-16T09:01:32;2.97;;;1.83;;
75358;SDS011;64046;51.978;5.934;2022-10-16T09:07:12;4.68;;;2.10;;
75358;SDS011;64046;51.978;5.934;2022-10-16T09:09:53;5.68;;;1.77;;
75358;SDS011;64046;51.978;5.934;2022-10-16T09:12:31;5.25;;;2.00;;
75358;SDS011;64046;51.978;5.934;2022-10-16T09:15:11;5.05;;;2.05;;
75358;SDS011;64046;51.978;5.934;2022-10-16T09:17:52;3.85;;;1.67;;
75358;SDS011;64046;51.978;5.934;2022-10-16T09:20:38;6.13;;;1.70;;
75358;SDS011;64046;51.978;5.934;2022-10-16T09:23:14;3.50;;;1.80;;
75358;SDS011;64046;51.978;5.934;2022-10-16T09:25:46;6.60;;;2.15;;
75358;SDS011;64046;51.978;5.934;2022-10-16T09:28:17;4.35;;;1.50;;
75358;SDS011;64046;51.978;5.934;2022-10-16T09:30:49;6.22;;;2.05;;
75358;SDS011;64046;51.978;5.934;2022-10-16T09:33:20;6.10;;;2.20;;
75358;SDS011;64046;51.978;5.934;2022-10-16T09:35:52;5.88;;;2.30;;
75358;SDS011;64046;51.978;5.934;2022-10-16T09:38:25;8.05;;;2.72;;
75358;SDS011;64046;51.978;5.934;2022-10-16T09:40:56;7.35;;;1.73;;
75358;SDS011;64046;51.978;5.934;2022-10-16T09:43:28;5.80;;;2.17;;
75358;SDS011;64046;51.978;5.934;2022-10-16T09:46:06;6.45;;;2.28;;
75358;SDS011;64046;51.978;5.934;2022-10-16T09:48:37;3.22;;;1.60;;
75358;SDS011;64046;51.978;5.934;2022-10-16T09:51:16;6.13;;;2.10;;
75358;SDS011;64046;51.978;5.934;2022-10-16T09:53:48;5.78;;;1.45;;
75358;SDS011;64046;51.978;5.934;2022-10-16T09:56:23;7.25;;;2.22;;
75358;SDS011;64046;51.978;5.934;2022-10-16T09:58:53;9.52;;;2.30;;
75358;SDS011;64046;51.978;5.934;2022-10-16T10:01:28;4.97;;;1.88;;
75358;SDS011;64046;51.978;5.934;2022-10-16T10:04:04;7.70;;;2.20;;
75358;SDS011;64046;51.978;5.934;2022-10-16T10:06:35;6.82;;;2.72;;
75358;SDS011;64046;51.978;5.934;2022-10-16T10:09:06;5.50;;;1.90;;
75358;SDS011;64046;51.978;5.934;2022-10-16T10:11:50;3.17;;;1.50;;
75358;SDS011;64046;51.978;5.934;2022-10-16T10:14:24;6.05;;;2.20;;
75358;SDS011;64046;51.978;5.934;2022-10-16T10:19:51;11.23;;;3.35;;
75358;SDS011;64046;51.978;5.934;2022-10-16T10:22:23;9.50;;;2.30;;
75358;SDS011;64046;51.978;5.934;2022-10-16T10:28:06;6.70;;;2.05;;
75358;SDS011;64046;51.978;5.934;2022-10-16T10:30:48;4.88;;;1.80;;
75358;SDS011;64046;51.978;5.934;2022-10-16T10:33:28;10.20;;;2.25;;
75358;SDS011;64046;51.978;5.934;2022-10-16T10:36:08;12.68;;;2.42;;
75358;SDS011;64046;51.978;5.934;2022-10-16T10:38:47;10.55;;;2.42;;
75358;SDS011;64046;51.978;5.934;2022-10-16T10:41:26;8.00;;;1.95;;
75358;SDS011;64046;51.978;5.934;2022-10-16T10:44:10;15.05;;;2.60;;
75358;SDS011;64046;51.978;5.934;2022-10-16T10:46:46;13.77;;;2.40;;
75358;SDS011;64046;51.978;5.934;2022-10-16T10:49:29;9.23;;;1.80;;
75358;SDS011;64046;51.978;5.934;2022-10-16T10:52:11;10.25;;;2.67;;
75358;SDS011;64046;51.978;5.934;2022-10-16T10:54:58;14.95;;;3.80;;
75358;SDS011;64046;51.978;5.934;2022-10-16T10:57:39;9.07;;;2.20;;
75358;SDS011;64046;51.978;5.934;2022-10-16T11:00:20;9.55;;;2.60;;
75358;SDS011;64046;51.978;5.934;2022-10-16T11:02:55;11.25;;;4.63;;
75358;SDS011;64046;51.978;5.934;2022-10-16T11:05:41;9.27;;;2.33;;
75358;SDS011;64046;51.978;5.934;2022-10-16T11:08:14;16.33;;;3.10;;
75358;SDS011;64046;51.978;5.934;2022-10-16T11:10:49;11.30;;;2.30;;
75358;SDS011;64046;51.978;5.934;2022-10-16T11:13:24;9.30;;;2.30;;
75358;SDS011;64046;51.978;5.934;2022-10-16T11:15:59;10.50;;;2.30;;
75358;SDS011;64046;51.978;5.934;2022-10-16T11:18:33;6.65;;;2.10;;
75358;SDS011;64046;51.978;5.934;2022-10-16T11:21:16;8.30;;;2.88;;
75358;SDS011;64046;51.978;5.934;2022-10-16T11:23:49;10.88;;;2.72;;
75358;SDS011;64046;51.978;5.934;2022-10-16T11:26:24;11.30;;;2.25;;
75358;SDS011;64046;51.978;5.934;2022-10-16T11:28:56;6.45;;;2.10;;
75358;SDS011;64046;51.978;5.934;2022-10-16T11:31:28;11.38;;;2.70;;
75358;SDS011;64046;51.978;5.934;2022-10-16T11:34:02;10.00;;;3.25;;
75358;SDS011;64046;51.978;5.934;2022-10-16T11:36:44;9.70;;;2.72;;
75358;SDS011;64046;51.978;5.934;2022-10-16T11:39:19;12.02;;;3.13;;
75358;SDS011;64046;51.978;5.934;2022-10-16T11:41:51;12.07;;;2.78;;
75358;SDS011;64046;51.978;5.934;2022-10-16T11:47:24;6.47;;;2.00;;
75358;SDS011;64046;51.978;5.934;2022-10-16T11:49:59;14.50;;;2.35;;
75358;SDS011;64046;51.978;5.934;2022-10-16T11:52:36;10.63;;;3.47;;
75358;SDS011;64046;51.978;5.934;2022-10-16T11:55:14;10.93;;;2.65;;
75358;SDS011;64046;51.978;5.934;2022-10-16T11:57:46;12.82;;;2.60;;
75358;SDS011;64046;51.978;5.934;2022-10-16T12:00:20;7.85;;;2.42;;
75358;SDS011;64046;51.978;5.934;2022-10-16T12:02:54;5.38;;;1.73;;
75358;SDS011;64046;51.978;5.934;2022-10-16T12:05:35;8.50;;;2.60;;
75358;SDS011;64046;51.978;5.934;2022-10-16T12:08:21;6.53;;;1.77;;
75358;SDS011;64046;51.978;5.934;2022-10-16T12:10:50;10.38;;;2.30;;
75358;SDS011;64046;51.978;5.934;2022-10-16T12:13:31;11.30;;;2.17;;
75358;SDS011;64046;51.978;5.934;2022-10-16T12:16:19;11.80;;;2.38;;
75358;SDS011;64046;51.978;5.934;2022-10-16T12:19:02;9.05;;;2.00;;
75358;SDS011;64046;51.978;5.934;2022-10-16T12:21:39;7.68;;;2.05;;
75358;SDS011;64046;51.978;5.934;2022-10-16T12:24:22;9.57;;;3.40;;
75358;SDS011;64046;51.978;5.934;2022-10-16T12:27:00;9.98;;;2.50;;
75358;SDS011;64046;51.978;5.934;2022-10-16T12:29:33;8.50;;;2.40;;
75358;SDS011;64046;51.978;5.934;2022-10-16T12:32:05;8.38;;;2.38;;
75358;SDS011;64046;51.978;5.934;2022-10-16T12:34:50;11.90;;;2.95;;
75358;SDS011;64046;51.978;5.934;2022-10-16T12:37:20;14.95;;;3.33;;
75358;SDS011;64046;51.978;5.934;2022-10-16T12:39:55;10.27;;;2.38;;
75358;SDS011;64046;51.978;5.934;2022-10-16T12:42:33;5.65;;;2.08;;
75358;SDS011;64046;51.978;5.934;2022-10-16T12:45:13;7.22;;;2.20;;
75358;SDS011;64046;51.978;5.934;2022-10-16T12:47:54;11.50;;;2.42;;
75358;SDS011;64046;51.978;5.934;2022-10-16T12:50:28;8.50;;;2.05;;
75358;SDS011;64046;51.978;5.934;2022-10-16T12:53:00;7.88;;;1.83;;
75358;SDS011;64046;51.978;5.934;2022-10-16T12:55:35;7.47;;;1.85;;
75358;SDS011;64046;51.978;5.934;2022-10-16T12:58:21;8.20;;;2.15;;
75358;SDS011;64046;51.978;5.934;2022-10-16T13:01:03;15.25;;;2.35;;
75358;SDS011;64046;51.978;5.934;2022-10-16T13:03:48;9.25;;;2.60;;
75358;SDS011;64046;51.978;5.934;2022-10-16T13:06:33;9.70;;;2.05;;
75358;SDS011;64046;51.978;5.934;2022-10-16T13:09:11;6.82;;;1.90;;
75358;SDS011;64046;51.978;5.934;2022-10-16T13:11:54;9.48;;;2.30;;
75358;SDS011;64046;51.978;5.934;2022-10-16T13:17:36;7.65;;;2.22;;
75358;SDS011;64046;51.978;5.934;2022-10-16T13:20:13;8.00;;;3.42;;
75358;SDS011;64046;51.978;5.934;2022-10-16T13:22:51;8.90;;;2.60;;
75358;SDS011;64046;51.978;5.934;2022-10-16T13:25:31;10.50;;;2.50;;
75358;SDS011;64046;51.978;5.934;2022-10-16T13:28:13;8.55;;;1.73;;
75358;SDS011;64046;51.978;5.934;2022-10-16T13:30:44;8.55;;;1.83;;
75358;SDS011;64046;51.978;5.934;2022-10-16T13:33:21;6.57;;;2.20;;
75358;SDS011;64046;51.978;5.934;2022-10-16T13:35:59;15.20;;;3.83;;
75358;SDS011;64046;51.978;5.934;2022-10-16T13:38:29;9.57;;;3.05;;
75358;SDS011;64046;51.978;5.934;2022-10-16T13:41:00;10.90;;;3.25;;
75358;SDS011;64046;51.978;5.934;2022-10-16T13:43:34;6.60;;;1.95;;
75358;SDS011;64046;51.978;5.934;2022-10-16T13:46:06;8.57;;;2.67;;
75358;SDS011;64046;51.978;5.934;2022-10-16T13:48:41;7.38;;;2.08;;
75358;SDS011;64046;51.978;5.934;2022-10-16T13:51:12;9.05;;;2.72;;
75358;SDS011;64046;51.978;5.934;2022-10-16T13:53:43;9.95;;;2.13;;
75358;SDS011;64046;51.978;5.934;2022-10-16T13:56:14;14.05;;;2.45;;
75358;SDS011;64046;51.978;5.934;2022-10-16T13:58:57;8.18;;;2.28;;
75358;SDS011;64046;51.978;5.934;2022-10-16T14:01:27;10.23;;;2.17;;
75358;SDS011;64046;51.978;5.934;2022-10-16T14:04:01;9.95;;;2.65;;
75358;SDS011;64046;51.978;5.934;2022-10-16T14:06:32;9.40;;;2.20;;
75358;SDS011;64046;51.978;5.934;2022-10-16T14:09:04;9.00;;;2.38;;
75358;SDS011;64046;51.978;5.934;2022-10-16T14:11:36;6.63;;;1.63;;
75358;SDS011;64046;51.978;5.934;2022-10-16T14:14:16;12.68;;;2.47;;
75358;SDS011;64046;51.978;5.934;2022-10-16T14:16:46;6.97;;;2.10;;
75358;SDS011;64046;51.978;5.934;2022-10-16T14:19:18;9.32;;;2.20;;
75358;SDS011;64046;51.978;5.934;2022-10-16T14:21:50;10.25;;;1.90;;
75358;SDS011;64046;51.978;5.934;2022-10-16T14:24:24;8.57;;;2.47;;
75358;SDS011;64046;51.978;5.934;2022-10-16T14:26:55;11.38;;;4.18;;
75358;SDS011;64046;51.978;5.934;2022-10-16T14:29:29;7.85;;;2.15;;
75358;SDS011;64046;51.978;5.934;2022-10-16T14:32:02;8.10;;;1.90;;
75358;SDS011;64046;51.978;5.934;2022-10-16T14:34:35;9.82;;;2.30;;
75358;SDS011;64046;51.978;5.934;2022-10-16T14:37:13;8.25;;;1.92;;
75358;SDS011;64046;51.978;5.934;2022-10-16T14:39:52;8.20;;;2.13;;
75358;SDS011;64046;51.978;5.934;2022-10-16T14:42:23;9.05;;;2.15;;
75358;SDS011;64046;51.978;5.934;2022-10-16T14:44:56;10.05;;;2.45;;
75358;SDS011;64046;51.978;5.934;2022-10-16T14:47:25;7.18;;;2.50;;
75358;SDS011;64046;51.978;5.934;2022-10-16T14:49:55;10.40;;;3.17;;
75358;SDS011;64046;51.978;5.934;2022-10-16T14:52:25;9.20;;;2.97;;
75358;SDS011;64046;51.978;5.934;2022-10-16T14:54:54;7.50;;;1.75;;
75358;SDS011;64046;51.978;5.934;2022-10-16T14:57:24;8.82;;;1.92;;
75358;SDS011;64046;51.978;5.934;2022-10-16T14:59:58;5.43;;;2.03;;
75358;SDS011;64046;51.978;5.934;2022-10-16T15:02:29;9.27;;;2.78;;
75358;SDS011;64046;51.978;5.934;2022-10-16T15:05:02;9.90;;;2.13;;
75358;SDS011;64046;51.978;5.934;2022-10-16T15:07:40;10.50;;;2.15;;
75358;SDS011;64046;51.978;5.934;2022-10-16T15:10:09;8.18;;;1.80;;
75358;SDS011;64046;51.978;5.934;2022-10-16T15:12:38;8.05;;;2.15;;
75358;SDS011;64046;51.978;5.934;2022-10-16T15:15:25;9.63;;;2.40;;
75358;SDS011;64046;51.978;5.934;2022-10-16T15:18:00;6.35;;;1.58;;
75358;SDS011;64046;51.978;5.934;2022-10-16T15:20:31;11.38;;;3.20;;
75358;SDS011;64046;51.978;5.934;2022-10-16T15:23:01;8.10;;;1.58;;
75358;SDS011;64046;51.978;5.934;2022-10-16T15:25:34;6.78;;;1.83;;
75358;SDS011;64046;51.978;5.934;2022-10-16T15:28:06;5.25;;;1.90;;
75358;SDS011;64046;51.978;5.934;2022-10-16T15:30:37;7.43;;;1.98;;
75358;SDS011;64046;51.978;5.934;2022-10-16T15:33:10;6.88;;;2.50;;
75358;SDS011;64046;51.978;5.934;2022-10-16T15:35:41;9.45;;;1.85;;
75358;SDS011;64046;51.978;5.934;2022-10-16T15:38:11;5.50;;;1.70;;
75358;SDS011;64046;51.978;5.934;2022-10-16T15:40:41;7.05;;;1.80;;